sensor_id;sensor_type;location;lat;lon;timestamp;pressure;altitude;pressure_sealevel;temperature;humidity
56070;BME280;41944;52.078;-0.058;2023-06-10T00:01:28;101236.12;;;14.66;96.94
56070;BME280;41944;52.078;-0.058;2023-06-10T00:03:55;101236.39;;;14.73;97.09
56070;BME280;41944;52.078;-0.058;2023-06-10T00:06:23;101234.71;;;14.84;96.17
56070;BME280;41944;52.078;-0.058;2023-06-10T00:08:50;101237.77;;;14.81;95.67
56070;BME280;41944;52.078;-0.058;2023-06-10T00:11:17;101242.63;;;14.68;96.24
56070;BME280;41944;52.078;-0.058;2023-06-10T00:13:44;101237.76;;;14.77;95.81
56070;BME280;41944;52.078;-0.058;2023-06-10T00:16:11;101241.77;;;14.58;97.11
56070;BME280;41944;52.078;-0.058;2023-06-10T00:18:38;101239.17;;;14.62;96.39
56070;BME280;41944;52.078;-0.058;2023-06-10T00:21:05;101240.54;;;14.67;95.49
56070;BME280;41944;52.078;-0.058;2023-06-10T00:23:32;101237.17;;;14.77;95.07
56070;BME280;41944;52.078;-0.058;2023-06-10T00:25:59;101236.43;;;14.77;95.29
56070;BME280;41944;52.078;-0.058;2023-06-10T00:28:26;101240.74;;;14.60;95.66
56070;BME280;41944;52.078;-0.058;2023-06-10T00:30:53;101238.14;;;14.65;95.93
56070;BME280;41944;52.078;-0.058;2023-06-10T00:33:20;101233.02;;;14.34;98.64
56070;BME280;41944;52.078;-0.058;2023-06-10T00:35:48;101230.35;;;14.35;98.05
56070;BME280;41944;52.078;-0.058;2023-06-10T00:38:15;101229.33;;;14.38;98.01
56070;BME280;41944;52.078;-0.058;2023-06-10T00:40:42;101233.27;;;14.50;97.82
56070;BME280;41944;52.078;-0.058;2023-06-10T00:43:09;101233.09;;;14.31;98.20
56070;BME280;41944;52.078;-0.058;2023-06-10T00:45:36;101231.13;;;14.30;98.81
56070;BME280;41944;52.078;-0.058;2023-06-10T00:48:04;101230.87;;;14.54;97.46
56070;BME280;41944;52.078;-0.058;2023-06-10T00:50:31;101230.00;;;14.57;96.36
56070;BME280;41944;52.078;-0.058;2023-06-10T00:52:59;101223.40;;;14.41;97.94
56070;BME280;41944;52.078;-0.058;2023-06-10T00:55:26;101219.34;;;14.65;96.51
56070;BME280;41944;52.078;-0.058;2023-06-10T00:57:53;101223.12;;;14.49;97.62
56070;BME280;41944;52.078;-0.058;2023-06-10T01:00:21;101222.25;;;14.31;98.04
56070;BME280;41944;52.078;-0.058;2023-06-10T01:02:48;101222.55;;;14.34;98.98
56070;BME280;41944;52.078;-0.058;2023-06-10T01:05:15;101222.47;;;14.20;99.40
56070;BME280;41944;52.078;-0.058;2023-06-10T01:07:48;101220.63;;;14.31;99.18
56070;BME280;41944;52.078;-0.058;2023-06-10T01:10:22;101220.91;;;14.32;98.91
56070;BME280;41944;52.078;-0.058;2023-06-10T01:13:00;101221.33;;;14.30;99.49
56070;BME280;41944;52.078;-0.058;2023-06-10T01:15:28;101221.09;;;14.25;99.15
56070;BME280;41944;52.078;-0.058;2023-06-10T01:17:56;101216.31;;;14.19;100.00
56070;BME280;41944;52.078;-0.058;2023-06-10T01:20:24;101220.22;;;14.25;100.00
56070;BME280;41944;52.078;-0.058;2023-06-10T01:22:51;101212.58;;;14.35;99.40
56070;BME280;41944;52.078;-0.058;2023-06-10T01:25:18;101215.41;;;14.18;99.99
56070;BME280;41944;52.078;-0.058;2023-06-10T01:27:47;101212.05;;;14.20;100.00
56070;BME280;41944;52.078;-0.058;2023-06-10T01:30:19;101210.23;;;14.32;100.00
56070;BME280;41944;52.078;-0.058;2023-06-10T01:32:50;101207.72;;;14.40;98.83
56070;BME280;41944;52.078;-0.058;2023-06-10T01:35:21;101206.39;;;14.30;99.48
56070;BME280;41944;52.078;-0.058;2023-06-10T01:37:53;101206.01;;;14.38;99.04
56070;BME280;41944;52.078;-0.058;2023-06-10T01:40:21;101203.00;;;13.94;100.00
56070;BME280;41944;52.078;-0.058;2023-06-10T01:42:50;101201.66;;;14.02;100.00
56070;BME280;41944;52.078;-0.058;2023-06-10T01:45:17;101200.12;;;13.97;100.00
56070;BME280;41944;52.078;-0.058;2023-06-10T01:47:45;101199.68;;;14.18;100.00
56070;BME280;41944;52.078;-0.058;2023-06-10T01:50:12;101197.84;;;14.21;100.00
56070;BME280;41944;52.078;-0.058;2023-06-10T01:52:39;101197.23;;;13.81;100.00
56070;BME280;41944;52.078;-0.058;2023-06-10T01:55:07;101197.29;;;13.94;100.00
56070;BME280;41944;52.078;-0.058;2023-06-10T01:57:34;101195.65;;;14.12;100.00
56070;BME280;41944;52.078;-0.058;2023-06-10T02:00:01;101193.05;;;13.92;100.00
56070;BME280;41944;52.078;-0.058;2023-06-10T02:02:28;101192.56;;;14.14;100.00
56070;BME280;41944;52.078;-0.058;2023-06-10T02:04:55;101190.71;;;14.26;100.00
56070;BME280;41944;52.078;-0.058;2023-06-10T02:07:21;101187.18;;;14.11;100.00
56070;BME280;41944;52.078;-0.058;2023-06-10T02:09:48;101190.69;;;14.06;100.00
56070;BME280;41944;52.078;-0.058;2023-06-10T02:12:15;101191.56;;;14.04;100.00
56070;BME280;41944;52.078;-0.058;2023-06-10T02:14:43;101189.15;;;14.19;100.00
56070;BME280;41944;52.078;-0.058;2023-06-10T02:17:10;101187.56;;;14.20;100.00
56070;BME280;41944;52.078;-0.058;2023-06-10T02:19:37;101189.36;;;14.05;100.00
56070;BME280;41944;52.078;-0.058;2023-06-10T02:22:04;101186.78;;;13.97;100.00
56070;BME280;41944;52.078;-0.058;2023-06-10T02:24:31;101186.83;;;13.94;100.00
56070;BME280;41944;52.078;-0.058;2023-06-10T02:26:58;101189.92;;;14.02;100.00
56070;BME280;41944;52.078;-0.058;2023-06-10T02:29:25;101188.03;;;14.25;100.00
56070;BME280;41944;52.078;-0.058;2023-06-10T02:31:52;101186.92;;;14.00;100.00
56070;BME280;41944;52.078;-0.058;2023-06-10T02:34:19;101187.89;;;13.97;100.00
56070;BME280;41944;52.078;-0.058;2023-06-10T02:36:46;101185.48;;;14.02;100.00
56070;BME280;41944;52.078;-0.058;2023-06-10T02:39:13;101185.57;;;14.03;100.00
56070;BME280;41944;52.078;-0.058;2023-06-10T02:41:40;101181.41;;;14.10;100.00
56070;BME280;41944;52.078;-0.058;2023-06-10T02:44:07;101175.32;;;14.00;100.00
56070;BME280;41944;52.078;-0.058;2023-06-10T02:46:35;101174.54;;;13.95;100.00
56070;BME280;41944;52.078;-0.058;2023-06-10T02:49:01;101176.04;;;13.95;100.00
56070;BME280;41944;52.078;-0.058;2023-06-10T02:51:29;101177.44;;;13.84;100.00
56070;BME280;41944;52.078;-0.058;2023-06-10T02:53:56;101178.47;;;13.59;100.00
56070;BME280;41944;52.078;-0.058;2023-06-10T02:56:23;101182.85;;;13.67;100.00
56070;BME280;41944;52.078;-0.058;2023-06-10T02:58:51;101180.28;;;13.89;100.00
56070;BME280;41944;52.078;-0.058;2023-06-10T03:01:17;101181.60;;;13.74;100.00
56070;BME280;41944;52.078;-0.058;2023-06-10T03:03:45;101176.83;;;13.72;100.00
56070;BME280;41944;52.078;-0.058;2023-06-10T03:06:13;101172.03;;;13.66;100.00
56070;BME280;41944;52.078;-0.058;2023-06-10T03:08:40;101171.38;;;13.46;100.00
56070;BME280;41944;52.078;-0.058;2023-06-10T03:11:07;101170.30;;;13.66;100.00
56070;BME280;41944;52.078;-0.058;2023-06-10T03:13:34;101169.69;;;13.73;100.00
56070;BME280;41944;52.078;-0.058;2023-06-10T03:16:01;101168.48;;;13.67;100.00
56070;BME280;41944;52.078;-0.058;2023-06-10T03:18:28;101172.19;;;13.66;100.00
56070;BME280;41944;52.078;-0.058;2023-06-10T03:20:56;101172.64;;;13.69;100.00
56070;BME280;41944;52.078;-0.058;2023-06-10T03:23:23;101170.43;;;13.75;100.00
56070;BME280;41944;52.078;-0.058;2023-06-10T03:25:50;101166.89;;;13.67;100.00
56070;BME280;41944;52.078;-0.058;2023-06-10T03:28:17;101169.72;;;13.77;100.00
56070;BME280;41944;52.078;-0.058;2023-06-10T03:30:45;101163.19;;;13.77;100.00
56070;BME280;41944;52.078;-0.058;2023-06-10T03:33:12;101159.35;;;13.57;100.00
56070;BME280;41944;52.078;-0.058;2023-06-10T03:35:39;101162.38;;;13.66;100.00
56070;BME280;41944;52.078;-0.058;2023-06-10T03:38:06;101161.59;;;13.68;100.00
56070;BME280;41944;52.078;-0.058;2023-06-10T03:40:33;101155.12;;;13.43;100.00
56070;BME280;41944;52.078;-0.058;2023-06-10T03:43:01;101161.15;;;13.59;100.00
56070;BME280;41944;52.078;-0.058;2023-06-10T03:45:28;101163.58;;;13.60;100.00
56070;BME280;41944;52.078;-0.058;2023-06-10T03:47:56;101167.87;;;13.67;100.00
56070;BME280;41944;52.078;-0.058;2023-06-10T03:50:23;101166.06;;;13.62;100.00
56070;BME280;41944;52.078;-0.058;2023-06-10T03:52:50;101162.64;;;13.55;100.00
56070;BME280;41944;52.078;-0.058;2023-06-10T03:55:17;101162.21;;;13.57;100.00
56070;BME280;41944;52.078;-0.058;2023-06-10T03:57:45;101160.75;;;13.47;100.00
56070;BME280;41944;52.078;-0.058;2023-06-10T04:00:13;101162.50;;;13.42;100.00
56070;BME280;41944;52.078;-0.058;2023-06-10T04:02:41;101166.99;;;13.56;100.00
56070;BME280;41944;52.078;-0.058;2023-06-10T04:05:08;101162.86;;;13.51;100.00
56070;BME280;41944;52.078;-0.058;2023-06-10T04:07:36;101160.52;;;13.35;100.00
56070;BME280;41944;52.078;-0.058;2023-06-10T04:10:03;101158.69;;;13.37;100.00
56070;BME280;41944;52.078;-0.058;2023-06-10T04:12:30;101159.06;;;13.43;100.00
56070;BME280;41944;52.078;-0.058;2023-06-10T04:14:58;101164.50;;;13.45;100.00
56070;BME280;41944;52.078;-0.058;2023-06-10T04:17:25;101162.45;;;13.40;100.00
56070;BME280;41944;52.078;-0.058;2023-06-10T04:19:52;101163.02;;;13.60;100.00
56070;BME280;41944;52.078;-0.058;2023-06-10T04:22:19;101162.37;;;13.74;100.00
56070;BME280;41944;52.078;-0.058;2023-06-10T04:24:46;101160.31;;;13.58;100.00
56070;BME280;41944;52.078;-0.058;2023-06-10T04:27:13;101159.16;;;13.56;100.00
56070;BME280;41944;52.078;-0.058;2023-06-10T04:29:41;101160.59;;;13.66;100.00
56070;BME280;41944;52.078;-0.058;2023-06-10T04:32:08;101164.38;;;13.78;100.00
56070;BME280;41944;52.078;-0.058;2023-06-10T04:34:34;101167.03;;;13.84;100.00
56070;BME280;41944;52.078;-0.058;2023-06-10T04:37:02;101169.24;;;13.90;100.00
56070;BME280;41944;52.078;-0.058;2023-06-10T04:39:29;101172.43;;;13.74;100.00
56070;BME280;41944;52.078;-0.058;2023-06-10T04:41:55;101169.12;;;14.09;100.00
56070;BME280;41944;52.078;-0.058;2023-06-10T04:44:22;101170.52;;;14.00;100.00
56070;BME280;41944;52.078;-0.058;2023-06-10T04:46:49;101172.32;;;14.03;100.00
56070;BME280;41944;52.078;-0.058;2023-06-10T04:49:16;101163.27;;;14.36;98.67
56070;BME280;41944;52.078;-0.058;2023-06-10T04:51:44;101163.91;;;14.45;97.80
56070;BME280;41944;52.078;-0.058;2023-06-10T04:54:11;101163.17;;;14.31;97.57
56070;BME280;41944;52.078;-0.058;2023-06-10T04:56:37;101159.30;;;14.43;97.18
56070;BME280;41944;52.078;-0.058;2023-06-10T04:59:05;101156.61;;;14.39;97.33
56070;BME280;41944;52.078;-0.058;2023-06-10T05:01:32;101153.98;;;14.63;95.48
56070;BME280;41944;52.078;-0.058;2023-06-10T05:03:59;101154.51;;;14.73;94.93
56070;BME280;41944;52.078;-0.058;2023-06-10T05:06:25;101151.39;;;14.58;95.96
56070;BME280;41944;52.078;-0.058;2023-06-10T05:08:52;101150.14;;;14.73;95.48
56070;BME280;41944;52.078;-0.058;2023-06-10T05:11:19;101145.68;;;14.87;94.06
56070;BME280;41944;52.078;-0.058;2023-06-10T05:13:46;101145.76;;;14.75;95.64
56070;BME280;41944;52.078;-0.058;2023-06-10T05:16:13;101144.89;;;14.92;94.71
56070;BME280;41944;52.078;-0.058;2023-06-10T05:18:40;101148.42;;;15.01;94.36
56070;BME280;41944;52.078;-0.058;2023-06-10T05:21:07;101146.46;;;15.18;93.59
56070;BME280;41944;52.078;-0.058;2023-06-10T05:23:34;101147.28;;;14.95;95.64
56070;BME280;41944;52.078;-0.058;2023-06-10T05:26:02;101147.94;;;15.15;94.53
56070;BME280;41944;52.078;-0.058;2023-06-10T05:28:29;101147.15;;;15.26;94.16
56070;BME280;41944;52.078;-0.058;2023-06-10T05:30:56;101147.02;;;15.36;93.77
56070;BME280;41944;52.078;-0.058;2023-06-10T05:33:24;101145.92;;;15.24;93.92
56070;BME280;41944;52.078;-0.058;2023-06-10T05:35:51;101147.23;;;15.27;94.40
56070;BME280;41944;52.078;-0.058;2023-06-10T05:38:18;101151.25;;;15.22;95.07
56070;BME280;41944;52.078;-0.058;2023-06-10T05:40:46;101153.58;;;15.30;94.38
56070;BME280;41944;52.078;-0.058;2023-06-10T05:43:13;101156.55;;;15.18;94.71
56070;BME280;41944;52.078;-0.058;2023-06-10T05:45:40;101155.58;;;15.16;95.29
56070;BME280;41944;52.078;-0.058;2023-06-10T05:48:07;101154.77;;;15.28;95.09
56070;BME280;41944;52.078;-0.058;2023-06-10T05:50:34;101158.49;;;15.39;94.40
56070;BME280;41944;52.078;-0.058;2023-06-10T05:53:01;101161.37;;;15.45;93.83
56070;BME280;41944;52.078;-0.058;2023-06-10T05:55:28;101158.14;;;15.30;95.26
56070;BME280;41944;52.078;-0.058;2023-06-10T05:57:58;101156.97;;;15.46;94.48
56070;BME280;41944;52.078;-0.058;2023-06-10T06:00:25;101156.41;;;15.69;93.83
56070;BME280;41944;52.078;-0.058;2023-06-10T06:02:52;101160.21;;;15.43;95.39
56070;BME280;41944;52.078;-0.058;2023-06-10T06:05:19;101160.50;;;15.64;94.01
56070;BME280;41944;52.078;-0.058;2023-06-10T06:07:47;101162.79;;;15.87;92.84
56070;BME280;41944;52.078;-0.058;2023-06-10T06:10:14;101161.14;;;15.89;93.10
56070;BME280;41944;52.078;-0.058;2023-06-10T06:12:41;101162.23;;;15.58;95.81
56070;BME280;41944;52.078;-0.058;2023-06-10T06:15:09;101164.39;;;16.14;92.30
56070;BME280;41944;52.078;-0.058;2023-06-10T06:17:37;101159.20;;;16.30;91.04
56070;BME280;41944;52.078;-0.058;2023-06-10T06:20:06;101159.18;;;16.24;90.83
56070;BME280;41944;52.078;-0.058;2023-06-10T06:22:33;101162.51;;;16.30;91.14
56070;BME280;41944;52.078;-0.058;2023-06-10T06:25:00;101157.37;;;16.67;89.09
56070;BME280;41944;52.078;-0.058;2023-06-10T06:27:27;101156.31;;;16.78;88.10
56070;BME280;41944;52.078;-0.058;2023-06-10T06:29:54;101152.73;;;16.70;89.65
56070;BME280;41944;52.078;-0.058;2023-06-10T06:32:21;101153.42;;;16.83;88.91
56070;BME280;41944;52.078;-0.058;2023-06-10T06:34:48;101149.34;;;16.73;89.15
56070;BME280;41944;52.078;-0.058;2023-06-10T06:37:16;101151.73;;;16.93;88.57
56070;BME280;41944;52.078;-0.058;2023-06-10T06:39:43;101152.25;;;16.86;88.63
56070;BME280;41944;52.078;-0.058;2023-06-10T06:42:09;101150.33;;;17.07;88.23
56070;BME280;41944;52.078;-0.058;2023-06-10T06:44:36;101149.95;;;17.08;88.83
56070;BME280;41944;52.078;-0.058;2023-06-10T06:47:04;101151.32;;;17.27;88.68
56070;BME280;41944;52.078;-0.058;2023-06-10T06:49:30;101154.32;;;17.35;88.42
56070;BME280;41944;52.078;-0.058;2023-06-10T06:51:58;101156.60;;;17.58;86.71
56070;BME280;41944;52.078;-0.058;2023-06-10T06:54:25;101151.98;;;17.65;86.60
56070;BME280;41944;52.078;-0.058;2023-06-10T06:56:52;101156.03;;;17.83;86.61
56070;BME280;41944;52.078;-0.058;2023-06-10T06:59:20;101157.08;;;17.74;86.44
56070;BME280;41944;52.078;-0.058;2023-06-10T07:01:47;101159.27;;;17.92;85.97
56070;BME280;41944;52.078;-0.058;2023-06-10T07:04:15;101157.93;;;18.04;85.26
56070;BME280;41944;52.078;-0.058;2023-06-10T07:06:42;101156.94;;;18.16;84.79
56070;BME280;41944;52.078;-0.058;2023-06-10T07:09:09;101151.92;;;18.38;82.82
56070;BME280;41944;52.078;-0.058;2023-06-10T07:11:36;101153.96;;;18.36;83.90
56070;BME280;41944;52.078;-0.058;2023-06-10T07:14:03;101156.54;;;18.33;83.78
56070;BME280;41944;52.078;-0.058;2023-06-10T07:16:31;101148.09;;;18.42;83.32
56070;BME280;41944;52.078;-0.058;2023-06-10T07:18:58;101145.82;;;18.57;83.26
56070;BME280;41944;52.078;-0.058;2023-06-10T07:21:26;101145.20;;;18.63;82.40
56070;BME280;41944;52.078;-0.058;2023-06-10T07:23:53;101150.29;;;18.74;82.02
56070;BME280;41944;52.078;-0.058;2023-06-10T07:26:22;101152.21;;;19.05;80.84
56070;BME280;41944;52.078;-0.058;2023-06-10T07:28:49;101147.37;;;19.12;80.63
56070;BME280;41944;52.078;-0.058;2023-06-10T07:31:16;101147.99;;;19.10;82.08
56070;BME280;41944;52.078;-0.058;2023-06-10T07:33:44;101150.28;;;19.36;80.83
56070;BME280;41944;52.078;-0.058;2023-06-10T07:36:11;101150.46;;;19.25;80.39
56070;BME280;41944;52.078;-0.058;2023-06-10T07:38:38;101147.40;;;19.24;81.60
56070;BME280;41944;52.078;-0.058;2023-06-10T07:41:05;101147.88;;;19.54;79.54
56070;BME280;41944;52.078;-0.058;2023-06-10T07:43:32;101151.42;;;19.49;80.32
56070;BME280;41944;52.078;-0.058;2023-06-10T07:45:59;101150.31;;;19.85;78.11
56070;BME280;41944;52.078;-0.058;2023-06-10T07:48:26;101145.26;;;19.66;79.63
56070;BME280;41944;52.078;-0.058;2023-06-10T07:50:53;101154.53;;;19.96;78.53
56070;BME280;41944;52.078;-0.058;2023-06-10T07:53:21;101155.05;;;20.14;78.44
56070;BME280;41944;52.078;-0.058;2023-06-10T07:55:48;101161.35;;;20.32;77.28
56070;BME280;41944;52.078;-0.058;2023-06-10T07:58:15;101160.92;;;20.50;76.62
56070;BME280;41944;52.078;-0.058;2023-06-10T08:00:42;101152.40;;;20.60;76.55
56070;BME280;41944;52.078;-0.058;2023-06-10T08:03:09;101148.36;;;20.69;75.66
56070;BME280;41944;52.078;-0.058;2023-06-10T08:05:36;101149.59;;;20.87;76.04
56070;BME280;41944;52.078;-0.058;2023-06-10T08:08:03;101146.83;;;20.99;74.38
56070;BME280;41944;52.078;-0.058;2023-06-10T08:10:31;101147.96;;;21.22;74.00
56070;BME280;41944;52.078;-0.058;2023-06-10T08:12:58;101150.23;;;21.12;74.79
56070;BME280;41944;52.078;-0.058;2023-06-10T08:15:25;101154.43;;;21.32;74.42
56070;BME280;41944;52.078;-0.058;2023-06-10T08:17:51;101151.26;;;21.45;73.89
56070;BME280;41944;52.078;-0.058;2023-06-10T08:20:18;101150.38;;;21.51;73.55
56070;BME280;41944;52.078;-0.058;2023-06-10T08:22:46;101155.41;;;21.63;73.66
56070;BME280;41944;52.078;-0.058;2023-06-10T08:25:12;101155.46;;;21.77;73.12
56070;BME280;41944;52.078;-0.058;2023-06-10T08:27:40;101152.39;;;21.88;73.19
56070;BME280;41944;52.078;-0.058;2023-06-10T08:30:08;101156.60;;;22.01;72.84
56070;BME280;41944;52.078;-0.058;2023-06-10T08:32:36;101155.43;;;22.10;72.93
56070;BME280;41944;52.078;-0.058;2023-06-10T08:35:04;101156.29;;;22.30;71.85
56070;BME280;41944;52.078;-0.058;2023-06-10T08:37:31;101155.15;;;22.35;71.57
56070;BME280;41944;52.078;-0.058;2023-06-10T08:39:58;101154.24;;;22.40;71.87
56070;BME280;41944;52.078;-0.058;2023-06-10T08:42:31;101150.76;;;22.64;71.14
56070;BME280;41944;52.078;-0.058;2023-06-10T08:45:01;101144.73;;;22.82;70.36
56070;BME280;41944;52.078;-0.058;2023-06-10T08:47:30;101144.59;;;22.86;70.38
56070;BME280;41944;52.078;-0.058;2023-06-10T08:50:02;101140.88;;;23.08;70.71
56070;BME280;41944;52.078;-0.058;2023-06-10T08:52:35;101140.43;;;23.22;70.37
56070;BME280;41944;52.078;-0.058;2023-06-10T08:55:04;101140.28;;;23.29;69.80
56070;BME280;41944;52.078;-0.058;2023-06-10T08:57:31;101139.49;;;23.38;69.96
56070;BME280;41944;52.078;-0.058;2023-06-10T08:59:58;101137.91;;;23.51;69.64
56070;BME280;41944;52.078;-0.058;2023-06-10T09:02:25;101138.93;;;23.48;69.94
56070;BME280;41944;52.078;-0.058;2023-06-10T09:04:56;101138.28;;;23.75;67.75
56070;BME280;41944;52.078;-0.058;2023-06-10T09:07:23;101136.40;;;23.91;67.74
56070;BME280;41944;52.078;-0.058;2023-06-10T09:09:51;101134.47;;;23.74;68.41
56070;BME280;41944;52.078;-0.058;2023-06-10T09:12:19;101135.43;;;24.02;66.77
56070;BME280;41944;52.078;-0.058;2023-06-10T09:14:46;101141.37;;;24.20;67.27
56070;BME280;41944;52.078;-0.058;2023-06-10T09:17:13;101149.64;;;24.39;66.46
56070;BME280;41944;52.078;-0.058;2023-06-10T09:19:40;101149.12;;;24.51;66.22
56070;BME280;41944;52.078;-0.058;2023-06-10T09:22:08;101149.71;;;24.59;66.09
56070;BME280;41944;52.078;-0.058;2023-06-10T09:24:35;101147.64;;;24.71;65.61
56070;BME280;41944;52.078;-0.058;2023-06-10T09:27:03;101148.37;;;24.89;64.98
56070;BME280;41944;52.078;-0.058;2023-06-10T09:29:31;101147.45;;;25.07;64.13
56070;BME280;41944;52.078;-0.058;2023-06-10T09:31:58;101144.88;;;25.16;64.96
56070;BME280;41944;52.078;-0.058;2023-06-10T09:34:26;101144.81;;;25.28;65.20
56070;BME280;41944;52.078;-0.058;2023-06-10T09:36:53;101138.08;;;25.32;63.56
56070;BME280;41944;52.078;-0.058;2023-06-10T09:39:20;101142.52;;;25.44;63.78
56070;BME280;41944;52.078;-0.058;2023-06-10T09:41:47;101143.32;;;25.61;64.25
56070;BME280;41944;52.078;-0.058;2023-06-10T09:44:14;101140.85;;;25.67;65.34
56070;BME280;41944;52.078;-0.058;2023-06-10T09:46:42;101143.41;;;25.80;65.02
56070;BME280;41944;52.078;-0.058;2023-06-10T09:49:11;101142.29;;;25.70;66.13
56070;BME280;41944;52.078;-0.058;2023-06-10T09:51:49;101143.37;;;25.91;65.47
56070;BME280;41944;52.078;-0.058;2023-06-10T09:54:16;101139.75;;;26.01;63.93
56070;BME280;41944;52.078;-0.058;2023-06-10T09:56:47;101141.30;;;26.11;64.69
56070;BME280;41944;52.078;-0.058;2023-06-10T09:59:14;101137.06;;;26.11;63.12
56070;BME280;41944;52.078;-0.058;2023-06-10T10:01:42;101141.51;;;26.31;65.39
56070;BME280;41944;52.078;-0.058;2023-06-10T10:04:09;101139.73;;;26.39;63.46
56070;BME280;41944;52.078;-0.058;2023-06-10T10:06:36;101138.69;;;26.58;62.04
56070;BME280;41944;52.078;-0.058;2023-06-10T10:09:04;101138.90;;;26.71;60.14
56070;BME280;41944;52.078;-0.058;2023-06-10T10:11:33;101132.69;;;26.83;61.05
56070;BME280;41944;52.078;-0.058;2023-06-10T10:14:04;101131.07;;;26.77;61.63
56070;BME280;41944;52.078;-0.058;2023-06-10T10:16:36;101130.98;;;26.90;61.90
56070;BME280;41944;52.078;-0.058;2023-06-10T10:19:07;101133.26;;;27.12;58.89
56070;BME280;41944;52.078;-0.058;2023-06-10T10:21:47;101127.88;;;27.17;61.12
56070;BME280;41944;52.078;-0.058;2023-06-10T10:24:20;101128.23;;;27.38;59.38
56070;BME280;41944;52.078;-0.058;2023-06-10T10:26:49;101129.75;;;27.52;58.57
56070;BME280;41944;52.078;-0.058;2023-06-10T10:29:24;101127.47;;;27.69;54.37
56070;BME280;41944;52.078;-0.058;2023-06-10T10:31:52;101122.37;;;27.75;53.29
56070;BME280;41944;52.078;-0.058;2023-06-10T10:34:27;101127.08;;;27.82;51.82
56070;BME280;41944;52.078;-0.058;2023-06-10T10:36:56;101124.34;;;27.86;52.55
56070;BME280;41944;52.078;-0.058;2023-06-10T10:39:24;101120.80;;;28.12;52.62
56070;BME280;41944;52.078;-0.058;2023-06-10T10:41:51;101121.45;;;28.32;51.34
56070;BME280;41944;52.078;-0.058;2023-06-10T10:44:19;101122.48;;;28.42;51.10
56070;BME280;41944;52.078;-0.058;2023-06-10T10:46:49;101125.00;;;28.55;48.19
56070;BME280;41944;52.078;-0.058;2023-06-10T10:49:18;101119.66;;;28.67;47.82
56070;BME280;41944;52.078;-0.058;2023-06-10T10:52:02;101121.67;;;28.77;47.00
56070;BME280;41944;52.078;-0.058;2023-06-10T10:54:31;101121.73;;;28.88;47.25
56070;BME280;41944;52.078;-0.058;2023-06-10T10:57:16;101121.68;;;28.96;46.33
56070;BME280;41944;52.078;-0.058;2023-06-10T10:59:46;101121.75;;;29.03;45.81
56070;BME280;41944;52.078;-0.058;2023-06-10T11:02:17;101118.55;;;29.07;45.25
56070;BME280;41944;52.078;-0.058;2023-06-10T11:04:47;101114.97;;;29.16;45.03
56070;BME280;41944;52.078;-0.058;2023-06-10T11:07:14;101117.03;;;29.14;45.22
56070;BME280;41944;52.078;-0.058;2023-06-10T11:10:05;101118.32;;;29.24;45.56
56070;BME280;41944;52.078;-0.058;2023-06-10T11:12:51;101121.70;;;29.31;45.43
56070;BME280;41944;52.078;-0.058;2023-06-10T11:15:18;101110.27;;;29.47;44.94
56070;BME280;41944;52.078;-0.058;2023-06-10T11:18:54;101112.11;;;29.54;45.56
56070;BME280;41944;52.078;-0.058;2023-06-10T11:21:23;101108.03;;;29.60;45.47
56070;BME280;41944;52.078;-0.058;2023-06-10T11:23:50;101115.88;;;29.75;46.01
56070;BME280;41944;52.078;-0.058;2023-06-10T11:26:20;101108.98;;;29.87;44.04
56070;BME280;41944;52.078;-0.058;2023-06-10T11:29:10;101106.98;;;29.84;43.92
56070;BME280;41944;52.078;-0.058;2023-06-10T11:31:41;101108.16;;;29.95;43.73
56070;BME280;41944;52.078;-0.058;2023-06-10T11:34:08;101103.84;;;30.00;43.23
56070;BME280;41944;52.078;-0.058;2023-06-10T11:36:38;101101.66;;;30.10;43.41
56070;BME280;41944;52.078;-0.058;2023-06-10T11:39:05;101104.85;;;30.17;41.88
56070;BME280;41944;52.078;-0.058;2023-06-10T11:41:34;101099.61;;;30.14;41.87
56070;BME280;41944;52.078;-0.058;2023-06-10T11:44:02;101102.97;;;30.22;41.16
56070;BME280;41944;52.078;-0.058;2023-06-10T11:46:30;101098.32;;;30.36;41.73
56070;BME280;41944;52.078;-0.058;2023-06-10T11:48:58;101096.40;;;30.41;41.14
56070;BME280;41944;52.078;-0.058;2023-06-10T11:51:27;101099.70;;;30.55;41.49
56070;BME280;41944;52.078;-0.058;2023-06-10T11:53:55;101093.99;;;30.61;40.78
56070;BME280;41944;52.078;-0.058;2023-06-10T11:56:23;101092.71;;;30.68;41.12
56070;BME280;41944;52.078;-0.058;2023-06-10T11:58:54;101093.59;;;30.69;41.89
56070;BME280;41944;52.078;-0.058;2023-06-10T12:01:22;101082.68;;;30.77;41.77
56070;BME280;41944;52.078;-0.058;2023-06-10T12:03:57;101093.38;;;30.73;40.53
56070;BME280;41944;52.078;-0.058;2023-06-10T12:06:24;101081.50;;;30.80;40.48
56070;BME280;41944;52.078;-0.058;2023-06-10T12:08:53;101086.10;;;30.96;40.57
56070;BME280;41944;52.078;-0.058;2023-06-10T12:11:21;101091.14;;;30.97;39.04
56070;BME280;41944;52.078;-0.058;2023-06-10T12:13:48;101086.07;;;30.93;39.43
56070;BME280;41944;52.078;-0.058;2023-06-10T12:16:16;101086.60;;;30.97;39.55
56070;BME280;41944;52.078;-0.058;2023-06-10T12:18:44;101081.18;;;31.08;39.62
56070;BME280;41944;52.078;-0.058;2023-06-10T12:21:20;101084.93;;;31.22;39.88
56070;BME280;41944;52.078;-0.058;2023-06-10T12:24:06;101087.60;;;31.15;38.18
56070;BME280;41944;52.078;-0.058;2023-06-10T12:26:36;101078.87;;;31.05;39.10
56070;BME280;41944;52.078;-0.058;2023-06-10T12:29:21;101081.01;;;31.14;39.31
56070;BME280;41944;52.078;-0.058;2023-06-10T12:32:04;101074.48;;;31.25;38.47
56070;BME280;41944;52.078;-0.058;2023-06-10T12:34:33;101073.72;;;31.31;38.54
56070;BME280;41944;52.078;-0.058;2023-06-10T12:37:01;101065.04;;;31.36;39.07
56070;BME280;41944;52.078;-0.058;2023-06-10T12:39:29;101062.87;;;31.43;38.81
56070;BME280;41944;52.078;-0.058;2023-06-10T12:41:56;101069.96;;;31.50;39.24
56070;BME280;41944;52.078;-0.058;2023-06-10T12:44:40;101069.33;;;31.57;38.77